sensor_id;sensor_type;location;lat;lon;timestamp;P1;durP1;ratioP1;P2;durP2;ratioP2
74872;SDS011;65883;44.726;37.764;2022-12-18T00:01:00;4.53;;;1.10;;
74872;SDS011;65883;44.726;37.764;2022-12-18T00:02:06;4.10;;;1.20;;
74872;SDS011;65883;44.726;37.764;2022-12-18T00:03:07;4.13;;;1.05;;
74872;SDS011;65883;44.726;37.764;2022-12-18T00:04:12;4.28;;;1.10;;
74872;SDS011;65883;44.726;37.764;2022-12-18T00:05:24;4.32;;;1.23;;
74872;SDS011;65883;44.726;37.764;2022-12-18T00:06:26;4.20;;;1.08;;
74872;SDS011;65883;44.726;37.764;2022-12-18T00:07:28;4.13;;;1.20;;
74872;SDS011;65883;44.726;37.764;2022-12-18T00:08:29;5.30;;;1.20;;
74872;SDS011;65883;44.726;37.764;2022-12-18T00:09:30;4.90;;;1.25;;
74872;SDS011;65883;44.726;37.764;2022-12-18T00:10:30;4.47;;;1.30;;
74872;SDS011;65883;44.726;37.764;2022-12-18T00:11:31;3.58;;;1.05;;
74872;SDS011;65883;44.726;37.764;2022-12-18T00:12:32;4.57;;;1.25;;
74872;SDS011;65883;44.726;37.764;2022-12-18T00:13:34;4.05;;;1.20;;
74872;SDS011;65883;44.726;37.764;2022-12-18T00:14:35;4.20;;;1.23;;
74872;SDS011;65883;44.726;37.764;2022-12-18T00:15:38;4.15;;;1.10;;
74872;SDS011;65883;44.726;37.764;2022-12-18T00:16:39;3.88;;;1.15;;
74872;SDS011;65883;44.726;37.764;2022-12-18T00:17:40;3.75;;;1.00;;
74872;SDS011;65883;44.726;37.764;2022-12-18T00:18:42;4.88;;;1.20;;
74872;SDS011;65883;44.726;37.764;2022-12-18T00:19:43;4.03;;;1.10;;
74872;SDS011;65883;44.726;37.764;2022-12-18T00:20:44;4.17;;;1.10;;
74872;SDS011;65883;44.726;37.764;2022-12-18T00:21:44;4.50;;;1.27;;
74872;SDS011;65883;44.726;37.764;2022-12-18T00:22:45;4.10;;;1.07;;
74872;SDS011;65883;44.726;37.764;2022-12-18T00:23:47;4.05;;;1.15;;
74872;SDS011;65883;44.726;37.764;2022-12-18T00:24:49;4.45;;;1.27;;
74872;SDS011;65883;44.726;37.764;2022-12-18T00:25:50;31.90;;;10.10;;
74872;SDS011;65883;44.726;37.764;2022-12-18T00:26:50;3.90;;;0.93;;
74872;SDS011;65883;44.726;37.764;2022-12-18T00:27:51;66.80;;;19.23;;
74872;SDS011;65883;44.726;37.764;2022-12-18T00:28:53;296.00;;;85.00;;
74872;SDS011;65883;44.726;37.764;2022-12-18T00:29:55;583.80;;;169.57;;
74872;SDS011;65883;44.726;37.764;2022-12-18T00:31:06;438.17;;;134.52;;
74872;SDS011;65883;44.726;37.764;2022-12-18T00:32:09;380.58;;;122.13;;
74872;SDS011;65883;44.726;37.764;2022-12-18T00:33:09;301.50;;;98.28;;
74872;SDS011;65883;44.726;37.764;2022-12-18T00:34:11;76.32;;;45.65;;
74872;SDS011;65883;44.726;37.764;2022-12-18T00:35:14;40.70;;;33.60;;
74872;SDS011;65883;44.726;37.764;2022-12-18T00:36:16;20.15;;;18.30;;
74872;SDS011;65883;44.726;37.764;2022-12-18T00:37:19;419.97;;;144.10;;
74872;SDS011;65883;44.726;37.764;2022-12-18T00:38:24;430.40;;;136.80;;
74872;SDS011;65883;44.726;37.764;2022-12-18T00:39:25;522.37;;;155.30;;
74872;SDS011;65883;44.726;37.764;2022-12-18T00:40:26;70.32;;;14.13;;
74872;SDS011;65883;44.726;37.764;2022-12-18T00:41:28;47.83;;;11.00;;
74872;SDS011;65883;44.726;37.764;2022-12-18T00:42:47;302.08;;;91.15;;
74872;SDS011;65883;44.726;37.764;2022-12-18T00:43:57;136.07;;;30.23;;
74872;SDS011;65883;44.726;37.764;2022-12-18T00:44:58;653.03;;;194.50;;
74872;SDS011;65883;44.726;37.764;2022-12-18T00:45:59;537.80;;;163.50;;
74872;SDS011;65883;44.726;37.764;2022-12-18T00:47:00;378.23;;;108.15;;
74872;SDS011;65883;44.726;37.764;2022-12-18T00:48:01;491.23;;;148.50;;
74872;SDS011;65883;44.726;37.764;2022-12-18T00:49:02;407.57;;;122.73;;
74872;SDS011;65883;44.726;37.764;2022-12-18T00:50:04;502.88;;;149.70;;
74872;SDS011;65883;44.726;37.764;2022-12-18T00:51:05;800.55;;;244.95;;
74872;SDS011;65883;44.726;37.764;2022-12-18T00:52:07;788.00;;;248.15;;
